sensor_id;sensor_type;location;lat;lon;timestamp;pressure;altitude;pressure_sealevel;temperature;humidity
25498;BME280;13406;53.380;7.226;2024-03-02T00:01:58;101844.34;;;6.34;100.00
25498;BME280;13406;53.380;7.226;2024-03-02T00:04:23;101895.66;;;6.74;100.00
25498;BME280;13406;53.380;7.226;2024-03-02T00:06:51;101966.34;;;7.15;100.00
25498;BME280;13406;53.380;7.226;2024-03-02T00:09:18;101959.91;;;7.08;100.00
25498;BME280;13406;53.380;7.226;2024-03-02T00:11:43;101929.63;;;6.99;100.00
25498;BME280;13406;53.380;7.226;2024-03-02T00:14:09;101924.88;;;7.03;100.00
25498;BME280;13406;53.380;7.226;2024-03-02T00:16:35;101966.97;;;6.99;100.00
25498;BME280;13406;53.380;7.226;2024-03-02T00:19:05;101986.09;;;7.22;100.00
25498;BME280;13406;53.380;7.226;2024-03-02T00:21:32;101998.09;;;7.09;100.00
25498;BME280;13406;53.380;7.226;2024-03-02T00:23:58;101953.66;;;6.99;100.00
25498;BME280;13406;53.380;7.226;2024-03-02T00:26:25;101862.81;;;6.46;100.00
25498;BME280;13406;53.380;7.226;2024-03-02T00:28:54;101975.88;;;6.90;100.00
25498;BME280;13406;53.380;7.226;2024-03-02T00:31:22;101923.91;;;6.67;100.00
25498;BME280;13406;53.380;7.226;2024-03-02T00:33:48;101939.63;;;6.97;100.00
25498;BME280;13406;53.380;7.226;2024-03-02T00:36:15;101984.50;;;7.12;100.00
25498;BME280;13406;53.380;7.226;2024-03-02T00:38:46;101984.75;;;7.09;100.00
25498;BME280;13406;53.380;7.226;2024-03-02T00:41:17;101968.44;;;7.21;100.00
25498;BME280;13406;53.380;7.226;2024-03-02T00:44:04;101872.66;;;6.45;100.00
25498;BME280;13406;53.380;7.226;2024-03-02T00:46:38;101950.78;;;7.11;100.00
25498;BME280;13406;53.380;7.226;2024-03-02T00:49:27;101894.53;;;6.39;100.00
25498;BME280;13406;53.380;7.226;2024-03-02T00:51:54;101957.91;;;6.92;100.00
25498;BME280;13406;53.380;7.226;2024-03-02T00:54:21;101960.69;;;7.00;100.00
25498;BME280;13406;53.380;7.226;2024-03-02T00:56:48;101908.78;;;6.85;100.00
25498;BME280;13406;53.380;7.226;2024-03-02T00:59:14;101838.91;;;6.26;100.00
25498;BME280;13406;53.380;7.226;2024-03-02T01:01:40;101891.66;;;6.88;100.00
25498;BME280;13406;53.380;7.226;2024-03-02T01:04:05;101755.25;;;6.65;100.00
25498;BME280;13406;53.380;7.226;2024-03-02T01:06:31;101655.84;;;5.81;100.00
25498;BME280;13406;53.380;7.226;2024-03-02T01:08:56;101715.03;;;6.58;100.00
25498;BME280;13406;53.380;7.226;2024-03-02T01:11:22;101813.41;;;6.97;100.00
25498;BME280;13406;53.380;7.226;2024-03-02T01:13:47;101842.28;;;6.84;100.00
25498;BME280;13406;53.380;7.226;2024-03-02T01:16:13;101881.41;;;7.11;100.00
25498;BME280;13406;53.380;7.226;2024-03-02T01:18:39;101760.00;;;6.43;100.00
25498;BME280;13406;53.380;7.226;2024-03-02T01:21:04;101884.50;;;6.88;100.00
25498;BME280;13406;53.380;7.226;2024-03-02T01:23:30;101863.13;;;6.98;100.00
25498;BME280;13406;53.380;7.226;2024-03-02T01:25:55;101874.81;;;6.87;100.00
25498;BME280;13406;53.380;7.226;2024-03-02T01:28:21;101873.78;;;6.70;100.00
25498;BME280;13406;53.380;7.226;2024-03-02T01:30:47;101859.41;;;6.81;100.00
25498;BME280;13406;53.380;7.226;2024-03-02T01:33:13;101915.88;;;7.22;100.00
25498;BME280;13406;53.380;7.226;2024-03-02T01:35:38;101803.53;;;6.62;100.00
25498;BME280;13406;53.380;7.226;2024-03-02T01:38:04;101911.16;;;7.16;100.00
25498;BME280;13406;53.380;7.226;2024-03-02T01:40:36;101829.19;;;6.90;100.00
25498;BME280;13406;53.380;7.226;2024-03-02T01:43:02;101900.56;;;7.24;100.00
25498;BME280;13406;53.380;7.226;2024-03-02T01:45:28;101892.38;;;7.08;100.00
25498;BME280;13406;53.380;7.226;2024-03-02T01:47:54;101873.88;;;7.06;100.00
25498;BME280;13406;53.380;7.226;2024-03-02T01:50:31;101758.84;;;6.28;100.00
25498;BME280;13406;53.380;7.226;2024-03-02T01:52:58;101802.06;;;6.49;100.00
25498;BME280;13406;53.380;7.226;2024-03-02T01:55:23;101862.69;;;7.20;100.00
25498;BME280;13406;53.380;7.226;2024-03-02T01:57:49;101741.69;;;6.58;100.00
25498;BME280;13406;53.380;7.226;2024-03-02T02:00:21;101843.16;;;7.20;100.00
25498;BME280;13406;53.380;7.226;2024-03-02T02:02:47;101814.25;;;6.97;100.00
25498;BME280;13406;53.380;7.226;2024-03-02T02:05:13;101864.69;;;7.09;100.00
25498;BME280;13406;53.380;7.226;2024-03-02T02:07:40;101858.56;;;7.44;100.00
25498;BME280;13406;53.380;7.226;2024-03-02T02:10:07;101853.38;;;7.42;100.00
25498;BME280;13406;53.380;7.226;2024-03-02T02:12:32;101823.63;;;7.37;100.00
25498;BME280;13406;53.380;7.226;2024-03-02T02:14:58;101702.00;;;6.73;100.00
25498;BME280;13406;53.380;7.226;2024-03-02T02:17:23;101820.53;;;7.24;100.00
25498;BME280;13406;53.380;7.226;2024-03-02T02:19:49;101814.72;;;7.46;100.00
25498;BME280;13406;53.380;7.226;2024-03-02T02:22:14;101674.91;;;6.60;100.00
25498;BME280;13406;53.380;7.226;2024-03-02T02:24:40;101631.25;;;6.61;100.00
25498;BME280;13406;53.380;7.226;2024-03-02T02:27:09;101770.19;;;7.11;100.00
25498;BME280;13406;53.380;7.226;2024-03-02T02:29:35;101744.59;;;6.83;100.00
25498;BME280;13406;53.380;7.226;2024-03-02T02:32:01;101790.06;;;7.53;100.00
25498;BME280;13406;53.380;7.226;2024-03-02T02:34:27;101777.06;;;7.58;100.00
25498;BME280;13406;53.380;7.226;2024-03-02T02:36:53;101683.91;;;7.02;100.00
25498;BME280;13406;53.380;7.226;2024-03-02T02:39:22;101719.38;;;7.39;100.00
25498;BME280;13406;53.380;7.226;2024-03-02T02:41:48;101727.06;;;7.42;100.00
25498;BME280;13406;53.380;7.226;2024-03-02T02:44:13;101685.16;;;7.34;100.00
25498;BME280;13406;53.380;7.226;2024-03-02T02:46:39;101617.19;;;6.94;100.00
25498;BME280;13406;53.380;7.226;2024-03-02T02:49:05;101706.03;;;7.65;100.00
25498;BME280;13406;53.380;7.226;2024-03-02T02:51:31;101651.81;;;7.38;100.00
25498;BME280;13406;53.380;7.226;2024-03-02T02:53:56;101543.28;;;6.87;100.00
25498;BME280;13406;53.380;7.226;2024-03-02T02:56:22;101670.50;;;7.64;100.00
25498;BME280;13406;53.380;7.226;2024-03-02T02:58:47;101645.59;;;7.30;100.00
25498;BME280;13406;53.380;7.226;2024-03-02T03:01:13;101566.53;;;7.02;100.00
25498;BME280;13406;53.380;7.226;2024-03-02T03:03:38;101640.56;;;7.53;100.00
25498;BME280;13406;53.380;7.226;2024-03-02T03:06:04;101570.78;;;7.13;100.00
25498;BME280;13406;53.380;7.226;2024-03-02T03:08:29;101508.81;;;6.93;100.00
25498;BME280;13406;53.380;7.226;2024-03-02T03:10:55;101538.03;;;6.69;100.00
25498;BME280;13406;53.380;7.226;2024-03-02T03:13:20;101613.09;;;7.34;100.00
25498;BME280;13406;53.380;7.226;2024-03-02T03:15:46;101526.72;;;6.75;100.00
25498;BME280;13406;53.380;7.226;2024-03-02T03:18:11;101610.72;;;7.31;100.00
25498;BME280;13406;53.380;7.226;2024-03-02T03:20:36;101585.66;;;7.16;100.00
25498;BME280;13406;53.380;7.226;2024-03-02T03:23:02;101523.75;;;6.78;100.00
25498;BME280;13406;53.380;7.226;2024-03-02T03:25:29;101621.56;;;7.56;100.00
25498;BME280;13406;53.380;7.226;2024-03-02T03:27:55;101616.50;;;7.44;100.00
25498;BME280;13406;53.380;7.226;2024-03-02T03:30:20;101611.19;;;7.18;100.00
25498;BME280;13406;53.380;7.226;2024-03-02T03:32:45;101601.22;;;7.29;100.00
25498;BME280;13406;53.380;7.226;2024-03-02T03:35:13;101635.13;;;7.36;100.00
25498;BME280;13406;53.380;7.226;2024-03-02T03:37:40;101588.78;;;7.11;100.00
25498;BME280;13406;53.380;7.226;2024-03-02T03:40:06;101583.44;;;7.11;100.00
25498;BME280;13406;53.380;7.226;2024-03-02T03:42:35;101552.06;;;6.79;100.00
25498;BME280;13406;53.380;7.226;2024-03-02T03:45:01;101639.63;;;7.36;100.00
25498;BME280;13406;53.380;7.226;2024-03-02T03:47:26;101644.44;;;7.06;100.00
25498;BME280;13406;53.380;7.226;2024-03-02T03:49:52;101642.75;;;7.31;100.00
25498;BME280;13406;53.380;7.226;2024-03-02T03:52:17;101517.25;;;6.54;100.00
25498;BME280;13406;53.380;7.226;2024-03-02T03:54:42;101498.16;;;6.41;100.00
25498;BME280;13406;53.380;7.226;2024-03-02T03:57:09;101618.44;;;7.34;100.00
25498;BME280;13406;53.380;7.226;2024-03-02T03:59:35;101554.06;;;6.77;100.00
25498;BME280;13406;53.380;7.226;2024-03-02T04:02:03;101551.09;;;6.80;100.00
25498;BME280;13406;53.380;7.226;2024-03-02T04:04:28;101536.59;;;6.83;100.00
25498;BME280;13406;53.380;7.226;2024-03-02T04:06:54;101515.94;;;6.59;100.00
25498;BME280;13406;53.380;7.226;2024-03-02T04:09:19;101478.94;;;6.55;100.00
25498;BME280;13406;53.380;7.226;2024-03-02T04:11:45;101570.91;;;7.04;100.00
25498;BME280;13406;53.380;7.226;2024-03-02T04:14:10;101621.00;;;6.92;100.00
25498;BME280;13406;53.380;7.226;2024-03-02T04:16:37;101622.63;;;7.11;100.00
25498;BME280;13406;53.380;7.226;2024-03-02T04:19:02;101618.28;;;7.10;100.00
25498;BME280;13406;53.380;7.226;2024-03-02T04:21:29;101589.72;;;6.76;100.00
25498;BME280;13406;53.380;7.226;2024-03-02T04:23:55;101587.72;;;6.78;100.00
25498;BME280;13406;53.380;7.226;2024-03-02T04:26:25;101542.84;;;6.47;100.00
25498;BME280;13406;53.380;7.226;2024-03-02T04:28:51;101452.94;;;6.05;100.00
25498;BME280;13406;53.380;7.226;2024-03-02T04:31:16;101487.31;;;6.17;100.00
25498;BME280;13406;53.380;7.226;2024-03-02T04:33:42;101605.47;;;6.87;100.00
25498;BME280;13406;53.380;7.226;2024-03-02T04:36:08;101553.19;;;6.68;100.00
25498;BME280;13406;53.380;7.226;2024-03-02T04:38:36;101634.59;;;6.81;100.00
25498;BME280;13406;53.380;7.226;2024-03-02T04:41:03;101562.53;;;6.10;100.00
25498;BME280;13406;53.380;7.226;2024-03-02T04:43:28;101619.38;;;6.37;100.00
25498;BME280;13406;53.380;7.226;2024-03-02T04:45:54;101621.34;;;6.35;100.00
25498;BME280;13406;53.380;7.226;2024-03-02T04:48:19;101598.13;;;6.09;100.00
25498;BME280;13406;53.380;7.226;2024-03-02T04:50:45;101719.00;;;6.72;100.00
25498;BME280;13406;53.380;7.226;2024-03-02T04:53:10;101729.97;;;6.69;100.00
25498;BME280;13406;53.380;7.226;2024-03-02T04:55:38;101677.09;;;6.28;100.00
25498;BME280;13406;53.380;7.226;2024-03-02T04:58:06;101724.72;;;6.77;100.00
25498;BME280;13406;53.380;7.226;2024-03-02T05:00:32;101726.00;;;6.91;100.00
25498;BME280;13406;53.380;7.226;2024-03-02T05:02:58;101597.66;;;5.96;100.00
25498;BME280;13406;53.380;7.226;2024-03-02T05:05:23;101714.06;;;6.77;100.00
25498;BME280;13406;53.380;7.226;2024-03-02T05:07:48;101725.84;;;6.92;100.00
25498;BME280;13406;53.380;7.226;2024-03-02T05:10:14;101635.59;;;6.26;100.00
25498;BME280;13406;53.380;7.226;2024-03-02T05:12:39;101645.84;;;6.21;100.00
25498;BME280;13406;53.380;7.226;2024-03-02T05:15:08;101745.28;;;6.67;100.00
25498;BME280;13406;53.380;7.226;2024-03-02T05:17:39;101730.19;;;6.57;100.00
25498;BME280;13406;53.380;7.226;2024-03-02T05:20:05;101696.66;;;6.37;100.00
25498;BME280;13406;53.380;7.226;2024-03-02T05:22:31;101668.47;;;6.34;100.00
25498;BME280;13406;53.380;7.226;2024-03-02T05:24:59;101748.25;;;6.64;100.00
25498;BME280;13406;53.380;7.226;2024-03-02T05:27:25;101660.69;;;6.23;100.00
25498;BME280;13406;53.380;7.226;2024-03-02T05:29:50;101672.56;;;6.11;100.00
25498;BME280;13406;53.380;7.226;2024-03-02T05:32:15;101671.34;;;6.05;100.00
25498;BME280;13406;53.380;7.226;2024-03-02T05:34:41;101618.63;;;5.72;100.00
25498;BME280;13406;53.380;7.226;2024-03-02T05:37:06;101662.88;;;5.73;100.00
25498;BME280;13406;53.380;7.226;2024-03-02T05:39:32;101712.69;;;5.90;100.00
25498;BME280;13406;53.380;7.226;2024-03-02T05:41:57;101784.44;;;6.39;100.00
25498;BME280;13406;53.380;7.226;2024-03-02T05:44:23;101681.16;;;5.58;100.00
25498;BME280;13406;53.380;7.226;2024-03-02T05:46:48;101769.91;;;5.96;100.00
25498;BME280;13406;53.380;7.226;2024-03-02T05:49:14;101736.22;;;5.67;100.00
25498;BME280;13406;53.380;7.226;2024-03-02T05:51:39;101783.63;;;5.81;100.00
25498;BME280;13406;53.380;7.226;2024-03-02T05:54:05;101803.09;;;6.11;100.00
25498;BME280;13406;53.380;7.226;2024-03-02T05:56:30;101815.13;;;6.15;100.00
25498;BME280;13406;53.380;7.226;2024-03-02T05:58:56;101699.00;;;5.38;100.00
25498;BME280;13406;53.380;7.226;2024-03-02T06:01:41;101837.72;;;5.92;100.00
25498;BME280;13406;53.380;7.226;2024-03-02T06:04:08;101838.66;;;6.10;100.00
25498;BME280;13406;53.380;7.226;2024-03-02T06:06:33;101871.25;;;5.94;100.00
25498;BME280;13406;53.380;7.226;2024-03-02T06:09:02;101867.72;;;6.03;100.00
25498;BME280;13406;53.380;7.226;2024-03-02T06:11:36;101862.09;;;5.87;100.00
25498;BME280;13406;53.380;7.226;2024-03-02T06:14:02;101734.59;;;5.17;100.00
25498;BME280;13406;53.380;7.226;2024-03-02T06:16:27;101756.72;;;5.28;100.00
25498;BME280;13406;53.380;7.226;2024-03-02T06:18:52;101775.78;;;5.13;100.00
25498;BME280;13406;53.380;7.226;2024-03-02T06:21:19;101827.13;;;5.62;100.00
25498;BME280;13406;53.380;7.226;2024-03-02T06:23:45;101899.13;;;6.00;100.00
25498;BME280;13406;53.380;7.226;2024-03-02T06:26:11;101790.75;;;5.14;100.00
25498;BME280;13406;53.380;7.226;2024-03-02T06:28:36;101712.53;;;4.78;100.00
25498;BME280;13406;53.380;7.226;2024-03-02T06:31:02;101904.88;;;5.85;100.00
25498;BME280;13406;53.380;7.226;2024-03-02T06:33:28;101913.00;;;5.74;100.00
25498;BME280;13406;53.380;7.226;2024-03-02T06:35:54;101941.28;;;5.75;100.00
25498;BME280;13406;53.380;7.226;2024-03-02T06:38:19;101929.09;;;5.73;100.00
25498;BME280;13406;53.380;7.226;2024-03-02T06:40:44;101887.22;;;5.55;100.00
25498;BME280;13406;53.380;7.226;2024-03-02T06:43:10;101952.38;;;5.80;100.00
25498;BME280;13406;53.380;7.226;2024-03-02T06:45:35;101866.78;;;5.65;100.00
25498;BME280;13406;53.380;7.226;2024-03-02T06:48:01;101836.81;;;5.34;100.00
25498;BME280;13406;53.380;7.226;2024-03-02T06:50:26;101916.75;;;5.81;100.00
25498;BME280;13406;53.380;7.226;2024-03-02T06:52:52;101966.66;;;6.18;100.00
25498;BME280;13406;53.380;7.226;2024-03-02T06:55:17;101953.50;;;6.07;100.00
25498;BME280;13406;53.380;7.226;2024-03-02T06:57:43;101859.91;;;5.63;100.00
25498;BME280;13406;53.380;7.226;2024-03-02T07:00:08;101909.06;;;5.98;100.00
25498;BME280;13406;53.380;7.226;2024-03-02T07:02:35;101881.47;;;5.79;100.00
25498;BME280;13406;53.380;7.226;2024-03-02T07:05:02;101972.09;;;6.46;100.00
25498;BME280;13406;53.380;7.226;2024-03-02T07:07:27;101978.38;;;6.54;100.00
25498;BME280;13406;53.380;7.226;2024-03-02T07:09:52;101959.91;;;6.43;100.00
25498;BME280;13406;53.380;7.226;2024-03-02T07:12:18;101964.06;;;6.55;100.00
25498;BME280;13406;53.380;7.226;2024-03-02T07:14:43;101872.91;;;6.05;100.00
25498;BME280;13406;53.380;7.226;2024-03-02T07:17:27;101939.56;;;6.42;100.00
25498;BME280;13406;53.380;7.226;2024-03-02T07:19:53;101975.25;;;6.69;100.00
25498;BME280;13406;53.380;7.226;2024-03-02T07:22:19;101876.84;;;5.72;100.00
25498;BME280;13406;53.380;7.226;2024-03-02T07:24:44;101924.16;;;6.26;100.00
25498;BME280;13406;53.380;7.226;2024-03-02T07:27:11;101945.16;;;6.49;100.00
25498;BME280;13406;53.380;7.226;2024-03-02T07:29:38;101980.31;;;6.62;100.00
25498;BME280;13406;53.380;7.226;2024-03-02T07:32:04;101975.31;;;6.49;100.00
25498;BME280;13406;53.380;7.226;2024-03-02T07:34:29;101906.22;;;6.19;100.00
25498;BME280;13406;53.380;7.226;2024-03-02T07:36:55;101967.81;;;6.72;100.00
25498;BME280;13406;53.380;7.226;2024-03-02T07:39:21;101981.66;;;6.86;100.00
25498;BME280;13406;53.380;7.226;2024-03-02T07:41:46;101977.34;;;6.65;100.00
25498;BME280;13406;53.380;7.226;2024-03-02T07:44:12;101943.63;;;6.46;100.00
25498;BME280;13406;53.380;7.226;2024-03-02T07:46:45;101984.22;;;6.77;100.00
25498;BME280;13406;53.380;7.226;2024-03-02T07:49:17;101920.34;;;6.39;100.00
25498;BME280;13406;53.380;7.226;2024-03-02T07:51:43;101952.09;;;6.69;100.00
25498;BME280;13406;53.380;7.226;2024-03-02T07:54:09;101991.34;;;6.87;100.00
25498;BME280;13406;53.380;7.226;2024-03-02T07:56:34;101973.94;;;6.83;100.00
25498;BME280;13406;53.380;7.226;2024-03-02T07:59:01;101888.69;;;6.16;100.00
25498;BME280;13406;53.380;7.226;2024-03-02T08:01:28;101970.75;;;6.69;100.00
25498;BME280;13406;53.380;7.226;2024-03-02T08:03:56;101941.38;;;6.51;100.00
25498;BME280;13406;53.380;7.226;2024-03-02T08:06:26;101922.78;;;6.22;100.00
25498;BME280;13406;53.380;7.226;2024-03-02T08:08:56;101911.69;;;6.27;100.00
25498;BME280;13406;53.380;7.226;2024-03-02T08:11:22;102007.47;;;6.85;100.00
25498;BME280;13406;53.380;7.226;2024-03-02T08:13:48;101976.34;;;6.76;100.00
25498;BME280;13406;53.380;7.226;2024-03-02T08:16:15;101972.84;;;6.75;100.00
25498;BME280;13406;53.380;7.226;2024-03-02T08:18:40;101922.34;;;6.27;100.00
25498;BME280;13406;53.380;7.226;2024-03-02T08:21:06;102003.00;;;6.86;100.00
25498;BME280;13406;53.380;7.226;2024-03-02T08:23:33;101945.75;;;6.43;100.00
25498;BME280;13406;53.380;7.226;2024-03-02T08:25:59;101998.25;;;7.07;100.00
25498;BME280;13406;53.380;7.226;2024-03-02T08:28:24;102009.69;;;7.27;100.00
25498;BME280;13406;53.380;7.226;2024-03-02T08:30:50;101905.47;;;6.73;100.00
25498;BME280;13406;53.380;7.226;2024-03-02T08:33:15;101923.41;;;6.81;100.00
25498;BME280;13406;53.380;7.226;2024-03-02T08:35:41;101914.41;;;6.82;100.00
25498;BME280;13406;53.380;7.226;2024-03-02T08:38:06;101935.38;;;7.05;100.00
25498;BME280;13406;53.380;7.226;2024-03-02T08:40:32;102018.66;;;6.98;100.00
25498;BME280;13406;53.380;7.226;2024-03-02T08:42:57;102000.34;;;7.41;100.00
25498;BME280;13406;53.380;7.226;2024-03-02T08:45:23;101996.44;;;7.35;100.00
25498;BME280;13406;53.380;7.226;2024-03-02T08:47:48;101774.63;;;6.11;100.00
25498;BME280;13406;53.380;7.226;2024-03-02T08:50:14;101939.56;;;7.07;100.00
25498;BME280;13406;53.380;7.226;2024-03-02T08:52:39;101922.66;;;7.16;100.00
25498;BME280;13406;53.380;7.226;2024-03-02T08:55:05;101889.63;;;6.99;100.00
25498;BME280;13406;53.380;7.226;2024-03-02T08:57:32;101967.75;;;7.37;100.00
25498;BME280;13406;53.380;7.226;2024-03-02T08:59:57;101914.84;;;7.33;100.00
25498;BME280;13406;53.380;7.226;2024-03-02T09:02:23;101849.50;;;6.91;100.00
25498;BME280;13406;53.380;7.226;2024-03-02T09:04:49;101925.13;;;7.28;100.00
25498;BME280;13406;53.380;7.226;2024-03-02T09:07:14;101903.84;;;7.18;100.00
25498;BME280;13406;53.380;7.226;2024-03-02T09:09:40;101891.47;;;7.17;100.00
25498;BME280;13406;53.380;7.226;2024-03-02T09:12:06;101932.19;;;7.46;100.00
25498;BME280;13406;53.380;7.226;2024-03-02T09:14:32;101888.69;;;7.36;100.00
25498;BME280;13406;53.380;7.226;2024-03-02T09:16:57;101943.47;;;7.76;100.00
25498;BME280;13406;53.380;7.226;2024-03-02T09:19:23;101943.28;;;7.78;100.00
25498;BME280;13406;53.380;7.226;2024-03-02T09:21:48;101970.69;;;7.98;100.00
25498;BME280;13406;53.380;7.226;2024-03-02T09:24:15;101978.63;;;8.07;100.00
25498;BME280;13406;53.380;7.226;2024-03-02T09:26:40;101960.78;;;7.90;100.00
25498;BME280;13406;53.380;7.226;2024-03-02T09:29:06;101812.88;;;7.11;100.00
25498;BME280;13406;53.380;7.226;2024-03-02T09:31:31;101871.44;;;7.48;100.00
25498;BME280;13406;53.380;7.226;2024-03-02T09:33:57;101933.91;;;7.91;100.00
25498;BME280;13406;53.380;7.226;2024-03-02T09:36:26;101955.34;;;8.00;100.00
25498;BME280;13406;53.380;7.226;2024-03-02T09:38:52;101958.72;;;8.02;100.00
25498;BME280;13406;53.380;7.226;2024-03-02T09:41:17;101959.53;;;8.02;100.00
25498;BME280;13406;53.380;7.226;2024-03-02T09:43:43;101904.06;;;7.96;100.00
25498;BME280;13406;53.380;7.226;2024-03-02T09:46:09;101929.22;;;8.11;100.00
25498;BME280;13406;53.380;7.226;2024-03-02T09:48:35;101921.41;;;8.18;100.00
25498;BME280;13406;53.380;7.226;2024-03-02T09:51:01;101931.53;;;8.32;100.00
25498;BME280;13406;53.380;7.226;2024-03-02T09:53:32;101942.88;;;8.52;100.00
25498;BME280;13406;53.380;7.226;2024-03-02T09:56:01;101937.13;;;8.65;100.00
25498;BME280;13406;53.380;7.226;2024-03-02T09:58:27;101932.09;;;8.70;100.00
25498;BME280;13406;53.380;7.226;2024-03-02T10:00:52;101892.91;;;8.53;100.00
25498;BME280;13406;53.380;7.226;2024-03-02T10:03:22;101904.56;;;8.78;100.00
25498;BME280;13406;53.380;7.226;2024-03-02T10:05:48;101865.22;;;8.62;100.00
25498;BME280;13406;53.380;7.226;2024-03-02T10:08:13;101771.78;;;8.26;100.00
25498;BME280;13406;53.380;7.226;2024-03-02T10:10:40;101837.84;;;8.85;100.00
25498;BME280;13406;53.380;7.226;2024-03-02T10:13:08;101851.31;;;9.09;100.00
25498;BME280;13406;53.380;7.226;2024-03-02T10:15:35;101837.94;;;9.17;100.00
25498;BME280;13406;53.380;7.226;2024-03-02T10:18:00;101794.09;;;9.18;100.00
25498;BME280;13406;53.380;7.226;2024-03-02T10:20:26;101769.16;;;9.34;100.00
25498;BME280;13406;53.380;7.226;2024-03-02T10:23:13;101700.56;;;9.17;100.00
25498;BME280;13406;53.380;7.226;2024-03-02T10:25:38;101695.38;;;9.40;100.00
25498;BME280;13406;53.380;7.226;2024-03-02T10:28:04;101722.25;;;9.79;100.00
25498;BME280;13406;53.380;7.226;2024-03-02T10:30:31;101694.78;;;9.69;100.00
25498;BME280;13406;53.380;7.226;2024-03-02T10:32:56;101587.63;;;9.30;100.00
25498;BME280;13406;53.380;7.226;2024-03-02T10:35:22;101642.31;;;9.91;100.00
25498;BME280;13406;53.380;7.226;2024-03-02T10:37:49;101611.28;;;9.96;100.00
25498;BME280;13406;53.380;7.226;2024-03-02T10:40:15;101605.13;;;10.19;100.00
25498;BME280;13406;53.380;7.226;2024-03-02T10:42:42;101595.75;;;10.15;100.00
25498;BME280;13406;53.380;7.226;2024-03-02T10:45:09;101203.38;;;7.79;100.00
25498;BME280;13406;53.380;7.226;2024-03-02T10:47:37;101593.22;;;10.22;100.00
25498;BME280;13406;53.380;7.226;2024-03-02T10:50:05;101572.50;;;10.15;100.00
25498;BME280;13406;53.380;7.226;2024-03-02T10:52:39;101592.88;;;10.25;100.00
25498;BME280;13406;53.380;7.226;2024-03-02T10:55:09;101593.16;;;10.53;100.00
25498;BME280;13406;53.380;7.226;2024-03-02T10:57:51;101579.72;;;10.76;100.00
25498;BME280;13406;53.380;7.226;2024-03-02T11:00:19;101542.47;;;10.43;100.00
25498;BME280;13406;53.380;7.226;2024-03-02T11:02:57;101529.47;;;10.55;100.00
25498;BME280;13406;53.380;7.226;2024-03-02T11:05:27;101515.53;;;10.74;100.00
25498;BME280;13406;53.380;7.226;2024-03-02T11:08:00;101489.59;;;10.81;100.00
25498;BME280;13406;53.380;7.226;2024-03-02T11:10:34;101447.50;;;10.67;100.00
25498;BME280;13406;53.380;7.226;2024-03-02T11:13:04;101413.81;;;10.94;100.00
25498;BME280;13406;53.380;7.226;2024-03-02T11:15:31;101388.22;;;10.62;100.00
25498;BME280;13406;53.380;7.226;2024-03-02T11:17:58;101365.91;;;10.91;100.00
25498;BME280;13406;53.380;7.226;2024-03-02T11:20:24;101384.53;;;11.14;100.00
25498;BME280;13406;53.380;7.226;2024-03-02T11:22:50;101296.66;;;10.35;100.00
25498;BME280;13406;53.380;7.226;2024-03-02T11:25:27;101327.28;;;10.92;100.00
25498;BME280;13406;53.380;7.226;2024-03-02T11:35:25;101298.75;;;11.27;100.00
25498;BME280;13406;53.380;7.226;2024-03-02T11:37:51;101278.09;;;10.70;100.00
25498;BME280;13406;53.380;7.226;2024-03-02T11:40:24;101320.28;;;11.13;100.00
25498;BME280;13406;53.380;7.226;2024-03-02T11:42:50;101305.00;;;11.13;100.00
25498;BME280;13406;53.380;7.226;2024-03-02T11:45:23;101277.56;;;11.39;100.00
25498;BME280;13406;53.380;7.226;2024-03-02T11:47:56;101306.50;;;11.65;100.00
25498;BME280;13406;53.380;7.226;2024-03-02T11:50:35;101306.19;;;11.75;100.00
25498;BME280;13406;53.380;7.226;2024-03-02T11:53:03;101277.69;;;11.52;100.00
25498;BME280;13406;53.380;7.226;2024-03-02T11:55:37;101299.59;;;12.06;100.00
25498;BME280;13406;53.380;7.226;2024-03-02T11:58:05;101271.88;;;11.77;100.00
25498;BME280;13406;53.380;7.226;2024-03-02T12:00:31;101261.00;;;11.85;100.00
25498;BME280;13406;53.380;7.226;2024-03-02T12:03:08;101258.81;;;11.95;100.00
25498;BME280;13406;53.380;7.226;2024-03-02T12:05:34;101252.59;;;11.67;100.00
25498;BME280;13406;53.380;7.226;2024-03-02T12:08:02;101278.00;;;12.27;100.00
25498;BME280;13406;53.380;7.226;2024-03-02T12:10:28;101232.84;;;11.81;100.00
25498;BME280;13406;53.380;7.226;2024-03-02T12:15:26;101230.84;;;12.31;100.00
25498;BME280;13406;53.380;7.226;2024-03-02T12:17:56;101187.72;;;12.11;100.00
25498;BME280;13406;53.380;7.226;2024-03-02T12:20:23;101204.06;;;12.71;100.00
25498;BME280;13406;53.380;7.226;2024-03-02T12:22:59;101209.91;;;13.15;100.00
25498;BME280;13406;53.380;7.226;2024-03-02T12:25:25;101162.00;;;12.57;100.00
25498;BME280;13406;53.380;7.226;2024-03-02T12:27:55;100973.25;;;12.60;100.00
25498;BME280;13406;53.380;7.226;2024-03-02T12:30:21;99960.56;;;12.61;100.00
25498;BME280;13406;53.380;7.226;2024-03-02T12:32:47;100471.25;;;12.89;100.00
25498;BME280;13406;53.380;7.226;2024-03-02T12:35:13;100412.41;;;13.11;100.00
25498;BME280;13406;53.380;7.226;2024-03-02T12:37:49;100140.44;;;12.99;100.00
25498;BME280;13406;53.380;7.226;2024-03-02T12:40:16;100172.41;;;12.35;100.00
25498;BME280;13406;53.380;7.226;2024-03-02T12:42:46;100242.72;;;13.29;100.00
25498;BME280;13406;53.380;7.226;2024-03-02T12:45:12;100274.94;;;13.36;100.00
25498;BME280;13406;53.380;7.226;2024-03-02T12:47:40;100256.22;;;13.53;100.00
25498;BME280;13406;53.380;7.226;2024-03-02T12:50:07;100266.78;;;13.43;100.00
25498;BME280;13406;53.380;7.226;2024-03-02T12:52:33;100255.41;;;13.41;100.00
25498;BME280;13406;53.380;7.226;2024-03-02T12:55:04;100234.34;;;12.77;100.00
25498;BME280;13406;53.380;7.226;2024-03-02T12:57:32;100279.28;;;13.07;100.00